createdAt,value
2023-05-14T00:00:20.110Z,99828.97
2023-05-14T00:02:46.584Z,99826.53
2023-05-14T00:05:12.974Z,99820.69
2023-05-14T00:07:39.443Z,99832.72
2023-05-14T00:10:06.615Z,99816.84
2023-05-14T00:12:32.936Z,99815.16
2023-05-14T00:14:59.269Z,99808.31
2023-05-14T00:17:25.627Z,99823.72
2023-05-14T00:19:52.030Z,99810.50
2023-05-14T00:22:18.412Z,99817.84
2023-05-14T00:24:44.721Z,99817.56
2023-05-14T00:27:11.416Z,99808.56
2023-05-14T00:29:37.751Z,99806.97
2023-05-14T00:32:04.333Z,99804.41
2023-05-14T00:34:30.734Z,99797.28
2023-05-14T00:36:57.114Z,99800.22
2023-05-14T00:39:23.430Z,99800.66
2023-05-14T00:41:49.853Z,99792.13
2023-05-14T00:44:16.205Z,99790.34
2023-05-14T00:46:43.569Z,99789.09
2023-05-14T00:49:11.010Z,99784.53
2023-05-14T00:51:37.917Z,99796.47
2023-05-14T00:54:04.630Z,99796.69
2023-05-14T00:56:31.465Z,99793.25
2023-05-14T00:58:58.229Z,99794.41
2023-05-14T01:01:24.714Z,99792.31
2023-05-14T01:03:53.319Z,99776.16
2023-05-14T01:06:42.268Z,99796.06
2023-05-14T01:09:37.012Z,99798.69
2023-05-14T01:12:41.115Z,99803.22
2023-05-14T01:15:20.956Z,99805.38
2023-05-14T01:17:55.473Z,99801.56
2023-05-14T01:20:22.997Z,99805.06
2023-05-14T01:22:49.575Z,99795.56
2023-05-14T01:25:15.928Z,99791.22
2023-05-14T01:28:12.487Z,99793.72
2023-05-14T01:31:06.623Z,99792.13
2023-05-14T01:33:34.721Z,99795.03
2023-05-14T01:36:01.946Z,99777.56
2023-05-14T01:38:31.574Z,99788.97
2023-05-14T01:40:59.936Z,99790.63
2023-05-14T01:43:26.974Z,99784.72
2023-05-14T01:45:55.211Z,99785.56
2023-05-14T01:48:21.627Z,99778.53
2023-05-14T01:50:47.996Z,99790.31
2023-05-14T01:53:14.462Z,99782.88
2023-05-14T01:55:40.786Z,99780.63
2023-05-14T01:58:07.107Z,99783.25
2023-05-14T02:00:33.404Z,99776.63
2023-05-14T02:02:59.867Z,99780.56
2023-05-14T02:05:26.207Z,99780.91
2023-05-14T02:07:53.933Z,99767.84
2023-05-14T02:10:20.486Z,99785.06
2023-05-14T02:12:49.192Z,99771.97
2023-05-14T02:15:16.215Z,99762.56
2023-05-14T02:17:42.589Z,99764.88
2023-05-14T02:20:11.089Z,99771.47
2023-05-14T02:22:37.897Z,99773.16
2023-05-14T02:25:04.445Z,99776.19
2023-05-14T02:27:30.780Z,99771.13
2023-05-14T02:30:00.526Z,99768.06
2023-05-14T02:32:27.907Z,99769.56
2023-05-14T02:34:54.310Z,99774.91
2023-05-14T02:37:20.663Z,99757.28
2023-05-14T02:39:47.041Z,99763.00
2023-05-14T02:42:15.454Z,99765.91
2023-05-14T02:44:41.777Z,99766.88
2023-05-14T02:47:08.144Z,99763.63
2023-05-14T02:49:34.529Z,99759.25
2023-05-14T02:52:00.875Z,99768.16
2023-05-14T02:54:27.235Z,99762.56
2023-05-14T02:56:53.598Z,99757.72
2023-05-14T02:59:19.993Z,99758.56
2023-05-14T03:01:46.786Z,99767.94
2023-05-14T03:04:13.599Z,99746.22
2023-05-14T03:06:39.907Z,99748.91
2023-05-14T03:09:06.262Z,99751.41
2023-05-14T03:11:32.783Z,99740.66
2023-05-14T03:13:59.184Z,99752.72
2023-05-14T03:16:25.678Z,99747.38
2023-05-14T03:18:52.117Z,99754.88
2023-05-14T03:21:18.778Z,99744.25
2023-05-14T03:23:45.089Z,99755.72
2023-05-14T03:26:37.212Z,99762.09
2023-05-14T03:29:05.167Z,99756.91
2023-05-14T03:31:31.570Z,99750.69
2023-05-14T03:33:58.050Z,99753.47
2023-05-14T03:36:24.472Z,99755.41
2023-05-14T03:38:50.772Z,99763.91
2023-05-14T03:41:18.400Z,99758.19
2023-05-14T03:43:44.688Z,99744.25
2023-05-14T03:46:11.142Z,99744.66
2023-05-14T03:48:37.665Z,99750.59
2023-05-14T03:51:04.834Z,99746.84
2023-05-14T03:53:31.214Z,99745.16
2023-05-14T03:55:57.533Z,99743.78
2023-05-14T03:58:23.826Z,99744.41
2023-05-14T04:00:50.244Z,99749.06
2023-05-14T04:03:16.952Z,99746.09
2023-05-14T04:05:43.352Z,99746.22
2023-05-14T04:08:09.674Z,99742.31
2023-05-14T04:10:36.083Z,99738.03
2023-05-14T04:13:02.561Z,99747.44
2023-05-14T04:15:32.359Z,99765.78
2023-05-14T04:17:58.785Z,99755.41
2023-05-14T04:20:25.703Z,99757.03
2023-05-14T04:22:52.680Z,99766.59
2023-05-14T04:25:19.175Z,99770.16
2023-05-14T04:27:45.691Z,99757.53
2023-05-14T04:30:12.412Z,99757.47
2023-05-14T04:32:39.150Z,99748.59
2023-05-14T04:35:06.343Z,99753.88
2023-05-14T04:37:33.012Z,99753.28
2023-05-14T04:39:59.428Z,99764.22
2023-05-14T04:42:25.721Z,99760.84
2023-05-14T04:44:52.298Z,99759.91
2023-05-14T04:47:18.758Z,99767.78
2023-05-14T04:49:45.099Z,99765.03
2023-05-14T04:52:11.424Z,99768.28
2023-05-14T04:54:37.779Z,99761.03
2023-05-14T04:57:04.392Z,99772.75
2023-05-14T04:59:31.453Z,99772.19
2023-05-14T05:01:57.983Z,99762.44
2023-05-14T05:04:24.386Z,99764.25
2023-05-14T05:06:50.751Z,99770.59
2023-05-14T05:09:20.104Z,99772.16
2023-05-14T05:11:46.496Z,99776.19
2023-05-14T05:14:12.969Z,99779.91
2023-05-14T05:16:39.387Z,99764.75
2023-05-14T05:19:05.754Z,99765.47
2023-05-14T05:21:32.098Z,99767.44
2023-05-14T05:23:58.413Z,99768.13
2023-05-14T05:26:26.706Z,99779.53
2023-05-14T05:28:52.996Z,99746.59
2023-05-14T05:31:20.103Z,99761.94
2023-05-14T05:33:47.566Z,99770.09
2023-05-14T05:36:13.995Z,99762.84
2023-05-14T05:38:40.358Z,99765.72
2023-05-14T05:41:07.278Z,99777.09
2023-05-14T05:43:34.071Z,99774.19
2023-05-14T05:46:00.945Z,99773.69
2023-05-14T05:48:27.272Z,99785.41
2023-05-14T05:50:53.788Z,99792.28
2023-05-14T05:53:20.101Z,99796.75
2023-05-14T05:55:46.508Z,99786.44
2023-05-14T05:58:15.615Z,99780.81
2023-05-14T06:00:41.931Z,99784.44
2023-05-14T06:03:08.293Z,99775.03
2023-05-14T06:05:34.696Z,99758.13
2023-05-14T06:08:01.117Z,99782.81
2023-05-14T06:10:27.478Z,99773.50
2023-05-14T06:12:53.805Z,99772.66
2023-05-14T06:15:21.388Z,99779.53
2023-05-14T06:17:47.788Z,99773.78
2023-05-14T06:20:14.166Z,99765.31
2023-05-14T06:22:40.539Z,99774.56
2023-05-14T06:25:07.474Z,99768.34
2023-05-14T06:27:33.895Z,99768.91
2023-05-14T06:30:00.250Z,99783.78
2023-05-14T06:32:26.601Z,99771.16
2023-05-14T06:34:52.930Z,99780.72
2023-05-14T06:37:19.246Z,99789.13
2023-05-14T06:39:49.874Z,99769.13
2023-05-14T06:42:16.862Z,99782.44
2023-05-14T06:44:43.494Z,99775.72
2023-05-14T06:47:09.851Z,99786.53
2023-05-14T06:49:36.222Z,99786.28
2023-05-14T06:52:03.499Z,99794.13
2023-05-14T06:54:30.942Z,99784.50
2023-05-14T06:56:57.473Z,99781.59
2023-05-14T06:59:23.928Z,99772.47
2023-05-14T07:01:50.294Z,99773.81
2023-05-14T07:04:16.913Z,99766.97
2023-05-14T07:06:43.261Z,99768.28
2023-05-14T07:09:10.548Z,99779.50
2023-05-14T07:11:36.897Z,99771.22
2023-05-14T07:14:03.390Z,99766.06
2023-05-14T07:16:29.840Z,99778.69
2023-05-14T07:18:56.192Z,99774.34
2023-05-14T07:21:22.649Z,99790.94
2023-05-14T07:23:48.992Z,99777.00
2023-05-14T07:26:15.479Z,99771.47
2023-05-14T07:28:41.804Z,99767.94
2023-05-14T07:31:08.829Z,99770.50
2023-05-14T07:33:36.307Z,99770.00
2023-05-14T07:36:02.708Z,99766.97
2023-05-14T07:38:29.163Z,99773.94
2023-05-14T07:40:56.030Z,99768.75
2023-05-14T07:43:22.399Z,99760.75
2023-05-14T07:45:48.780Z,99748.25
2023-05-14T07:48:15.347Z,99751.63
2023-05-14T07:50:41.861Z,99756.91
2023-05-14T07:53:08.200Z,99741.03
2023-05-14T07:55:34.553Z,99751.56
2023-05-14T07:58:00.943Z,99727.03
2023-05-14T08:00:27.469Z,99747.81
2023-05-14T08:02:55.152Z,99743.56
2023-05-14T08:05:21.789Z,99729.22
2023-05-14T08:07:48.127Z,99750.28
2023-05-14T08:10:14.487Z,99745.25
2023-05-14T08:12:41.623Z,99739.00
2023-05-14T08:15:08.402Z,99746.34
2023-05-14T08:17:34.909Z,99738.94
2023-05-14T08:20:02.022Z,99740.25
2023-05-14T08:22:28.391Z,99726.34
2023-05-14T08:24:54.899Z,99732.25
2023-05-14T08:27:21.456Z,99717.56
2023-05-14T08:29:47.753Z,99737.13
2023-05-14T08:32:22.825Z,99728.59
2023-05-14T08:34:51.412Z,99729.63
2023-05-14T08:37:17.874Z,99727.09
2023-05-14T08:39:44.464Z,99731.31
2023-05-14T08:42:12.964Z,99726.28
2023-05-14T08:44:44.434Z,99715.94
2023-05-14T08:47:12.449Z,99682.81
2023-05-14T08:49:44.299Z,99711.59
2023-05-14T08:52:11.431Z,99700.06
2023-05-14T08:54:38.657Z,99712.13
2023-05-14T08:57:05.726Z,99710.59
2023-05-14T08:59:32.158Z,99707.03
2023-05-14T09:02:01.718Z,99699.56
2023-05-14T09:04:29.523Z,99697.94
2023-05-14T09:06:56.066Z,99684.69
2023-05-14T09:09:23.010Z,99678.81
2023-05-14T09:11:51.294Z,99684.06
2023-05-14T09:14:17.948Z,99691.00
2023-05-14T09:16:49.498Z,99681.09
2023-05-14T09:19:18.883Z,99685.88
2023-05-14T09:21:46.204Z,99668.72
2023-05-14T09:24:23.022Z,99665.38
2023-05-14T09:26:53.927Z,99668.13
2023-05-14T09:29:21.602Z,99670.22
2023-05-14T09:31:50.290Z,99668.91
2023-05-14T09:34:30.508Z,99666.94
2023-05-14T09:36:57.783Z,99664.13
2023-05-14T09:39:25.605Z,99662.91
2023-05-14T09:41:52.693Z,99654.13
2023-05-14T09:44:19.716Z,99661.06
2023-05-14T09:46:46.966Z,99649.44
2023-05-14T09:49:13.354Z,99655.66
2023-05-14T09:51:39.899Z,99621.41
2023-05-14T09:54:06.804Z,99645.53
2023-05-14T09:56:34.565Z,99639.34
2023-05-14T09:59:01.075Z,99642.38
2023-05-14T10:01:29.141Z,99630.72
2023-05-14T10:03:56.152Z,99644.91
2023-05-14T10:06:29.357Z,99633.91
2023-05-14T10:08:58.355Z,99643.94
2023-05-14T10:11:28.386Z,99610.16
2023-05-14T10:14:19.752Z,99629.22
2023-05-14T10:16:54.103Z,99640.59
2023-05-14T10:19:24.050Z,99633.88
2023-05-14T10:21:56.721Z,99632.88
2023-05-14T10:24:24.833Z,99627.69
2023-05-14T10:26:51.921Z,99623.44
2023-05-14T10:29:18.305Z,99622.75
2023-05-14T10:31:55.189Z,99626.34
2023-05-14T10:34:40.567Z,99624.88
2023-05-14T10:37:11.792Z,99625.72
2023-05-14T10:39:50.401Z,99619.69
2023-05-14T10:42:23.133Z,99617.03
2023-05-14T10:44:54.205Z,99619.56
2023-05-14T10:47:21.206Z,99615.88
2023-05-14T10:49:50.694Z,99607.34
2023-05-14T10:52:19.349Z,99618.56
2023-05-14T10:54:48.838Z,99613.03
2023-05-14T10:57:15.253Z,99610.00
2023-05-14T10:59:42.699Z,99604.81
2023-05-14T11:02:24.026Z,99604.25
2023-05-14T11:05:03.304Z,99604.09
2023-05-14T11:07:37.810Z,99596.09
2023-05-14T11:10:05.485Z,99600.19
2023-05-14T11:12:33.593Z,99599.66
2023-05-14T11:15:02.295Z,99596.19
2023-05-14T11:17:30.554Z,99585.13
2023-05-14T11:19:58.021Z,99588.94
2023-05-14T11:22:24.789Z,99579.66
2023-05-14T11:24:51.154Z,99580.41
2023-05-14T11:27:18.600Z,99570.94
2023-05-14T11:29:46.118Z,99579.34
2023-05-14T11:32:13.275Z,99578.94
2023-05-14T11:34:39.754Z,99578.38
2023-05-14T11:37:10.108Z,99573.22
2023-05-14T11:39:37.500Z,99566.84
2023-05-14T11:42:05.704Z,99553.00
2023-05-14T11:44:32.377Z,99554.00
2023-05-14T11:46:59.311Z,99566.03
2023-05-14T11:49:26.762Z,99556.19
2023-05-14T11:52:00.765Z,99549.59
2023-05-14T11:54:30.433Z,99543.66
2023-05-14T11:56:57.521Z,99540.34
2023-05-14T11:59:25.416Z,99539.06
2023-05-14T12:01:54.679Z,99542.09
2023-05-14T12:04:24.410Z,99534.50
2023-05-14T12:06:53.959Z,99527.31
2023-05-14T12:09:21.691Z,99535.81
2023-05-14T12:11:50.511Z,99536.00
2023-05-14T12:14:22.055Z,99535.72
2023-05-14T12:16:49.414Z,99530.88
2023-05-14T12:19:19.132Z,99515.94
2023-05-14T12:21:47.533Z,99521.94
2023-05-14T12:24:16.751Z,99503.88
2023-05-14T12:26:47.330Z,99511.59
2023-05-14T12:29:15.296Z,99511.91
2023-05-14T12:31:49.362Z,99511.38
2023-05-14T12:34:16.903Z,99508.81
2023-05-14T12:36:44.437Z,99501.59
2023-05-14T12:39:12.110Z,99503.72
2023-05-14T12:41:38.395Z,99496.38
2023-05-14T12:44:05.241Z,99491.22
2023-05-14T12:46:32.867Z,99481.69
2023-05-14T12:48:59.315Z,99488.06
2023-05-14T12:51:25.705Z,99487.66
2023-05-14T12:53:53.974Z,99487.28
2023-05-14T12:56:21.228Z,99469.94
2023-05-14T12:58:47.615Z,99478.81
2023-05-14T13:01:14.014Z,99464.81
2023-05-14T13:03:40.950Z,99469.16
2023-05-14T13:06:07.790Z,99468.78
2023-05-14T13:08:35.039Z,99466.94
2023-05-14T13:11:01.359Z,99461.09
2023-05-14T13:13:27.775Z,99447.09
2023-05-14T13:15:54.088Z,99448.69
2023-05-14T13:18:20.401Z,99443.53
2023-05-14T13:20:49.706Z,99443.38
2023-05-14T13:23:15.995Z,99442.22
2023-05-14T13:25:42.304Z,99450.38
2023-05-14T13:28:09.163Z,99444.81
2023-05-14T13:30:35.659Z,99433.16
2023-05-14T13:33:02.181Z,99440.78
2023-05-14T13:35:28.639Z,99436.81
2023-05-14T13:37:54.960Z,99436.16
2023-05-14T13:40:21.364Z,99427.03
2023-05-14T13:42:47.720Z,99430.91
2023-05-14T13:45:14.038Z,99427.47
2023-05-14T13:47:40.496Z,99421.66
2023-05-14T13:50:07.336Z,99413.53
2023-05-14T13:52:33.660Z,99418.03
2023-05-14T13:54:59.989Z,99418.38
2023-05-14T13:57:26.292Z,99415.72
2023-05-14T13:59:52.774Z,99408.63
2023-05-14T14:02:19.095Z,99388.59
2023-05-14T14:04:45.475Z,99403.84
2023-05-14T14:07:11.807Z,99411.06
2023-05-14T14:09:38.142Z,99403.31
2023-05-14T14:12:04.860Z,99399.34
2023-05-14T14:14:31.405Z,99409.03
2023-05-14T14:16:57.737Z,99395.81
2023-05-14T14:19:24.039Z,99393.13
2023-05-14T14:24:17.662Z,99396.28
2023-05-14T14:26:43.986Z,99396.00
2023-05-14T14:29:10.381Z,99392.94
2023-05-14T14:31:36.754Z,99382.06
2023-05-14T14:34:03.200Z,99386.88
2023-05-14T14:36:30.558Z,99376.31
2023-05-14T14:38:57.067Z,99373.44
2023-05-14T14:41:23.489Z,99377.78
2023-05-14T14:43:49.880Z,99374.00
2023-05-14T14:46:16.232Z,99373.16
2023-05-14T14:48:42.586Z,99367.97
2023-05-14T14:51:09.521Z,99378.13
2023-05-14T14:53:36.998Z,99392.53
2023-05-14T14:56:03.520Z,99387.38
2023-05-14T14:58:30.914Z,99411.28
2023-05-14T15:00:57.813Z,99423.78
2023-05-14T15:03:25.078Z,99438.03
2023-05-14T15:05:53.193Z,99461.59
2023-05-14T15:08:20.650Z,99428.41
2023-05-14T15:10:46.947Z,99448.13
2023-05-14T15:13:13.342Z,99418.47
2023-05-14T15:15:39.663Z,99409.19
2023-05-14T15:18:06.097Z,99406.88
2023-05-14T15:20:32.589Z,99401.88
2023-05-14T15:22:58.945Z,99395.84
2023-05-14T15:25:26.606Z,99399.84
2023-05-14T15:27:53.089Z,99393.16
2023-05-14T15:30:19.592Z,99389.50
2023-05-14T15:32:46.462Z,99378.94
2023-05-14T15:35:12.918Z,99386.91
2023-05-14T15:37:44.427Z,99381.41
2023-05-14T15:40:11.437Z,99397.75
2023-05-14T15:42:40.106Z,99397.41
2023-05-14T15:45:06.777Z,99395.75
2023-05-14T15:47:33.309Z,99387.09
2023-05-14T15:50:00.065Z,99386.78
2023-05-14T15:52:27.002Z,99389.66
2023-05-14T15:54:54.206Z,99366.13
2023-05-14T15:57:20.529Z,99380.50
2023-05-14T15:59:47.376Z,99378.50
2023-05-14T16:02:14.961Z,99380.00
2023-05-14T16:04:41.462Z,99376.19
2023-05-14T16:07:11.952Z,99374.66
2023-05-14T16:09:38.809Z,99383.16
2023-05-14T16:12:06.341Z,99374.66
2023-05-14T16:14:35.791Z,99379.50
2023-05-14T16:17:02.234Z,99375.81
2023-05-14T16:19:28.625Z,99370.50
2023-05-14T16:21:54.996Z,99374.66
2023-05-14T16:24:21.411Z,99376.44
2023-05-14T16:26:47.874Z,99376.13
2023-05-14T16:29:14.274Z,99378.44
2023-05-14T16:31:40.695Z,99376.56
2023-05-14T16:34:06.985Z,99386.06
2023-05-14T16:36:33.320Z,99378.38
2023-05-14T16:39:07.097Z,99389.59
2023-05-14T16:41:35.193Z,99383.75
2023-05-14T16:44:01.553Z,99383.25
2023-05-14T16:46:29.269Z,99383.59
2023-05-14T16:48:56.197Z,99400.25
2023-05-14T16:51:22.579Z,99386.75
2023-05-14T16:53:49.018Z,99390.22
2023-05-14T16:56:15.477Z,99386.75
2023-05-14T16:58:41.870Z,99386.38
2023-05-14T17:01:09.907Z,99395.53
2023-05-14T17:03:36.855Z,99399.06
2023-05-14T17:06:04.460Z,99394.91
2023-05-14T17:08:33.363Z,99401.75
2023-05-14T17:10:59.723Z,99391.22
2023-05-14T17:13:26.186Z,99402.91
2023-05-14T17:15:52.668Z,99397.41
2023-05-14T17:18:19.098Z,99397.91
2023-05-14T17:20:45.461Z,99388.06
2023-05-14T17:23:11.760Z,99387.84
2023-05-14T17:25:38.084Z,99391.88
2023-05-14T17:28:04.528Z,99396.53
2023-05-14T17:30:31.036Z,99398.34
2023-05-14T17:32:57.436Z,99396.34
2023-05-14T17:35:24.028Z,99401.69
2023-05-14T17:37:50.550Z,99397.16
2023-05-14T17:40:16.992Z,99384.69
2023-05-14T17:42:45.305Z,99391.69
2023-05-14T17:45:13.009Z,99392.00
2023-05-14T17:47:39.446Z,99393.00
2023-05-14T17:50:06.496Z,99394.19
2023-05-14T17:52:32.877Z,99394.81
2023-05-14T17:54:59.279Z,99397.97
2023-05-14T17:57:26.025Z,99405.94
2023-05-14T17:59:52.354Z,99369.06
2023-05-14T18:02:18.669Z,99392.78
2023-05-14T18:04:45.088Z,99407.91
2023-05-14T18:07:11.432Z,99392.41
2023-05-14T18:09:37.810Z,99380.88
2023-05-14T18:12:04.345Z,99411.56
2023-05-14T18:14:30.677Z,99402.22
2023-05-14T18:16:57.196Z,99416.06
2023-05-14T18:19:25.758Z,99404.44
2023-05-14T18:21:55.150Z,99420.91
2023-05-14T18:24:21.976Z,99412.94
2023-05-14T18:26:48.395Z,99431.41
2023-05-14T18:29:14.810Z,99436.25
2023-05-14T18:31:41.146Z,99422.88
2023-05-14T18:34:07.552Z,99425.16
2023-05-14T18:36:33.926Z,99422.03
2023-05-14T18:39:00.340Z,99417.97
2023-05-14T18:41:26.701Z,99432.47
2023-05-14T18:43:53.071Z,99411.91
2023-05-14T18:46:19.539Z,99413.13
2023-05-14T18:48:46.207Z,99439.78
2023-05-14T18:51:12.951Z,99445.28
2023-05-14T18:53:39.256Z,99430.03
2023-05-14T18:56:05.668Z,99446.06
2023-05-14T18:58:32.412Z,99433.84
2023-05-14T19:00:58.988Z,99448.03
2023-05-14T19:03:25.873Z,99439.59
2023-05-14T19:05:53.356Z,99440.41
2023-05-14T19:08:20.362Z,99449.00
2023-05-14T19:10:46.719Z,99455.13
2023-05-14T19:13:13.104Z,99451.06
2023-05-14T19:15:39.532Z,99441.47
2023-05-14T19:18:06.135Z,99436.28
2023-05-14T19:20:32.589Z,99453.41
2023-05-14T19:22:58.895Z,99457.91
2023-05-14T19:25:25.600Z,99461.41
2023-05-14T19:27:53.503Z,99445.91
2023-05-14T19:30:20.695Z,99440.56
2023-05-14T19:32:47.104Z,99446.38
2023-05-14T19:35:13.410Z,99441.41
2023-05-14T19:37:39.727Z,99433.38
2023-05-14T19:40:06.770Z,99441.19
2023-05-14T19:42:33.148Z,99451.59
2023-05-14T19:44:59.519Z,99449.34
2023-05-14T19:47:25.904Z,99452.81
2023-05-14T19:49:52.316Z,99452.06
2023-05-14T19:52:18.652Z,99448.72
2023-05-14T19:54:45.105Z,99457.56
2023-05-14T19:57:11.713Z,99434.22
2023-05-14T19:59:39.102Z,99449.94
2023-05-14T20:02:05.655Z,99445.06
2023-05-14T20:04:33.029Z,99441.97
2023-05-14T20:06:59.387Z,99447.66
2023-05-14T20:09:25.883Z,99452.38
2023-05-14T20:11:52.214Z,99453.13
2023-05-14T20:14:18.542Z,99444.78
2023-05-14T20:16:46.700Z,99446.81
2023-05-14T20:19:14.125Z,99450.13
2023-05-14T20:21:40.555Z,99455.94
2023-05-14T20:24:06.981Z,99446.13
2023-05-14T20:26:33.330Z,99437.38
2023-05-14T20:28:59.638Z,99438.25
2023-05-14T20:31:26.044Z,99431.53
2023-05-14T20:33:52.374Z,99403.84
2023-05-14T20:36:19.044Z,99437.13
2023-05-14T20:38:45.572Z,99429.16
2023-05-14T20:41:12.025Z,99424.06
2023-05-14T20:43:38.404Z,99421.25
2023-05-14T20:46:07.084Z,99423.59
2023-05-14T20:48:33.466Z,99421.72
2023-05-14T20:50:59.872Z,99429.19
2023-05-14T20:53:28.149Z,99427.31
2023-05-14T20:55:54.482Z,99417.84
2023-05-14T20:58:20.930Z,99405.75
2023-05-14T21:00:47.359Z,99408.44
2023-05-14T21:03:13.809Z,99394.28
2023-05-14T21:05:41.877Z,99395.75
2023-05-14T21:08:08.294Z,99403.63
2023-05-14T21:10:34.894Z,99401.81
2023-05-14T21:13:01.243Z,99406.13
2023-05-14T21:15:27.885Z,99419.19
2023-05-14T21:17:54.438Z,99403.09
2023-05-14T21:20:20.953Z,99407.06
2023-05-14T21:22:47.284Z,99401.94
2023-05-14T21:25:13.727Z,99400.59
2023-05-14T21:27:40.112Z,99408.72
2023-05-14T21:30:07.137Z,99412.44
2023-05-14T21:32:33.515Z,99406.59
2023-05-14T21:34:59.954Z,99404.06
2023-05-14T21:37:26.334Z,99413.75
2023-05-14T21:39:52.677Z,99408.59
2023-05-14T21:42:20.815Z,99389.47
2023-05-14T21:44:47.313Z,99406.28
2023-05-14T21:47:13.837Z,99399.50
2023-05-14T21:49:40.174Z,99400.72
2023-05-14T21:52:06.632Z,99399.84
2023-05-14T21:54:33.099Z,99386.31
2023-05-14T21:56:59.570Z,99389.88
2023-05-14T21:59:25.904Z,99387.97
2023-05-14T22:02:06.309Z,99378.06
2023-05-14T22:04:33.493Z,99408.06
2023-05-14T22:06:59.987Z,99395.16
2023-05-14T22:09:26.382Z,99384.97
2023-05-14T22:11:52.711Z,99391.53
2023-05-14T22:14:19.022Z,99390.72
2023-05-14T22:16:45.637Z,99399.66
2023-05-14T22:19:12.139Z,99406.75
2023-05-14T22:21:38.571Z,99397.38
2023-05-14T22:24:05.127Z,99387.16
2023-05-14T22:26:31.451Z,99387.47
2023-05-14T22:28:57.824Z,99395.50
2023-05-14T22:31:24.425Z,99392.47
2023-05-14T22:33:50.838Z,99382.41
2023-05-14T22:36:17.180Z,99380.34
2023-05-14T22:38:43.785Z,99388.84
2023-05-14T22:41:10.775Z,99389.94
2023-05-14T22:43:37.128Z,99377.53
2023-05-14T22:46:03.679Z,99391.94
2023-05-14T22:48:30.041Z,99383.00
2023-05-14T22:50:56.348Z,99385.38
2023-05-14T22:53:24.328Z,99379.81
2023-05-14T22:55:51.426Z,99376.03
2023-05-14T22:58:17.777Z,99382.38
2023-05-14T23:00:44.104Z,99372.41
2023-05-14T23:03:10.475Z,99366.59
2023-05-14T23:05:36.903Z,99375.13
2023-05-14T23:08:03.652Z,99373.47
2023-05-14T23:10:29.998Z,99368.50
2023-05-14T23:12:56.374Z,99372.69
2023-05-14T23:15:22.826Z,99373.38
2023-05-14T23:17:49.392Z,99363.22
2023-05-14T23:20:15.861Z,99374.09
2023-05-14T23:22:42.209Z,99376.38
2023-05-14T23:25:09.184Z,99356.97
2023-05-14T23:27:35.580Z,99362.56
2023-05-14T23:30:03.517Z,99362.25
2023-05-14T23:32:29.917Z,99347.66
2023-05-14T23:34:56.264Z,99360.63
2023-05-14T23:37:23.121Z,99364.78
2023-05-14T23:39:49.510Z,99343.91
2023-05-14T23:42:15.819Z,99344.53
2023-05-14T23:44:42.161Z,99344.97
2023-05-14T23:47:08.694Z,99344.69
2023-05-14T23:49:35.387Z,99333.66
2023-05-14T23:52:02.188Z,99345.34
2023-05-14T23:54:28.551Z,99330.19
2023-05-14T23:56:54.898Z,99335.22
2023-05-14T23:59:21.955Z,99338.28
